sensor_id;sensor_type;location;lat;lon;timestamp;pressure;altitude;pressure_sealevel;temperature;humidity
163;BME280;3946;48.958;8.284;2023-08-21T00:00:04;100873.97;;;22.98;100.00
163;BME280;3946;48.958;8.284;2023-08-21T00:02:48;100872.47;;;23.12;100.00
163;BME280;3946;48.958;8.284;2023-08-21T00:05:33;100870.13;;;23.25;100.00
163;BME280;3946;48.958;8.284;2023-08-21T00:08:20;100866.50;;;23.26;100.00
163;BME280;3946;48.958;8.284;2023-08-21T00:11:05;100864.38;;;23.21;100.00
163;BME280;3946;48.958;8.284;2023-08-21T00:13:49;100862.53;;;23.06;100.00
163;BME280;3946;48.958;8.284;2023-08-21T00:16:34;100871.47;;;23.13;100.00
163;BME280;3946;48.958;8.284;2023-08-21T00:19:19;100865.19;;;22.97;100.00
163;BME280;3946;48.958;8.284;2023-08-21T00:22:04;100868.84;;;23.05;100.00
163;BME280;3946;48.958;8.284;2023-08-21T00:24:51;100869.00;;;23.11;100.00
163;BME280;3946;48.958;8.284;2023-08-21T00:27:35;100867.31;;;23.26;100.00
163;BME280;3946;48.958;8.284;2023-08-21T00:30:20;100858.09;;;23.14;100.00
163;BME280;3946;48.958;8.284;2023-08-21T00:33:05;100862.06;;;23.10;100.00
163;BME280;3946;48.958;8.284;2023-08-21T00:35:51;100857.25;;;23.06;100.00
163;BME280;3946;48.958;8.284;2023-08-21T00:38:36;100855.47;;;22.98;100.00
163;BME280;3946;48.958;8.284;2023-08-21T00:41:22;100852.81;;;22.90;100.00
163;BME280;3946;48.958;8.284;2023-08-21T00:44:07;100848.53;;;22.89;100.00
163;BME280;3946;48.958;8.284;2023-08-21T00:46:54;100856.09;;;22.92;100.00
163;BME280;3946;48.958;8.284;2023-08-21T00:49:39;100854.31;;;22.84;100.00
163;BME280;3946;48.958;8.284;2023-08-21T00:52:24;100857.25;;;23.06;100.00
163;BME280;3946;48.958;8.284;2023-08-21T00:55:09;100861.19;;;22.69;100.00
163;BME280;3946;48.958;8.284;2023-08-21T00:57:55;100863.66;;;22.62;100.00
163;BME280;3946;48.958;8.284;2023-08-21T01:00:41;100857.75;;;22.77;100.00
163;BME280;3946;48.958;8.284;2023-08-21T01:03:26;100863.00;;;22.68;100.00
163;BME280;3946;48.958;8.284;2023-08-21T01:06:11;100868.59;;;22.57;100.00
163;BME280;3946;48.958;8.284;2023-08-21T01:08:57;100874.19;;;22.38;100.00
163;BME280;3946;48.958;8.284;2023-08-21T01:11:49;100878.34;;;22.49;100.00
163;BME280;3946;48.958;8.284;2023-08-21T01:14:39;100876.38;;;22.67;100.00
163;BME280;3946;48.958;8.284;2023-08-21T01:17:27;100877.34;;;22.50;100.00
163;BME280;3946;48.958;8.284;2023-08-21T01:20:13;100880.78;;;22.34;100.00
163;BME280;3946;48.958;8.284;2023-08-21T01:23:02;100877.66;;;22.39;100.00
163;BME280;3946;48.958;8.284;2023-08-21T01:25:50;100878.16;;;22.50;100.00
163;BME280;3946;48.958;8.284;2023-08-21T01:28:34;100886.69;;;22.28;100.00
163;BME280;3946;48.958;8.284;2023-08-21T01:31:21;100888.81;;;22.24;100.00
163;BME280;3946;48.958;8.284;2023-08-21T01:34:08;100889.09;;;22.13;100.00
163;BME280;3946;48.958;8.284;2023-08-21T01:36:55;100885.06;;;22.35;100.00
163;BME280;3946;48.958;8.284;2023-08-21T01:39:42;100891.19;;;22.44;100.00
163;BME280;3946;48.958;8.284;2023-08-21T01:42:28;100882.78;;;22.48;100.00
163;BME280;3946;48.958;8.284;2023-08-21T01:45:13;100877.00;;;22.45;100.00
163;BME280;3946;48.958;8.284;2023-08-21T01:47:58;100875.84;;;22.39;100.00
163;BME280;3946;48.958;8.284;2023-08-21T01:50:43;100879.78;;;22.43;100.00
163;BME280;3946;48.958;8.284;2023-08-21T01:53:28;100881.63;;;22.51;100.00
163;BME280;3946;48.958;8.284;2023-08-21T01:56:13;100885.78;;;22.61;100.00
163;BME280;3946;48.958;8.284;2023-08-21T01:58:59;100875.53;;;22.50;100.00
163;BME280;3946;48.958;8.284;2023-08-21T02:01:44;100884.09;;;22.44;100.00
163;BME280;3946;48.958;8.284;2023-08-21T02:04:29;100880.13;;;22.40;100.00
163;BME280;3946;48.958;8.284;2023-08-21T02:07:14;100884.03;;;22.28;100.00
163;BME280;3946;48.958;8.284;2023-08-21T02:09:59;100884.25;;;22.34;100.00
163;BME280;3946;48.958;8.284;2023-08-21T02:12:44;100890.66;;;22.32;100.00
163;BME280;3946;48.958;8.284;2023-08-21T02:15:31;100889.63;;;22.25;100.00
163;BME280;3946;48.958;8.284;2023-08-21T02:18:16;100891.78;;;22.21;100.00
163;BME280;3946;48.958;8.284;2023-08-21T02:21:01;100890.00;;;21.96;100.00
163;BME280;3946;48.958;8.284;2023-08-21T02:23:46;100892.72;;;22.12;100.00
163;BME280;3946;48.958;8.284;2023-08-21T02:26:31;100887.66;;;22.19;100.00
163;BME280;3946;48.958;8.284;2023-08-21T02:29:16;100894.44;;;22.21;100.00
163;BME280;3946;48.958;8.284;2023-08-21T02:32:03;100895.75;;;22.25;100.00
163;BME280;3946;48.958;8.284;2023-08-21T02:34:48;100900.19;;;22.17;100.00
163;BME280;3946;48.958;8.284;2023-08-21T02:37:33;100896.50;;;22.02;100.00
163;BME280;3946;48.958;8.284;2023-08-21T02:40:18;100903.34;;;21.94;100.00
163;BME280;3946;48.958;8.284;2023-08-21T02:43:04;100915.63;;;21.78;100.00
163;BME280;3946;48.958;8.284;2023-08-21T02:45:48;100909.13;;;21.90;100.00
163;BME280;3946;48.958;8.284;2023-08-21T02:48:35;100916.16;;;22.07;100.00
163;BME280;3946;48.958;8.284;2023-08-21T02:51:20;100902.78;;;22.09;100.00
163;BME280;3946;48.958;8.284;2023-08-21T02:54:05;100903.78;;;22.08;100.00
163;BME280;3946;48.958;8.284;2023-08-21T02:56:51;100907.59;;;22.13;100.00
163;BME280;3946;48.958;8.284;2023-08-21T02:59:35;100898.84;;;22.13;100.00
163;BME280;3946;48.958;8.284;2023-08-21T03:02:21;100893.56;;;22.13;100.00
163;BME280;3946;48.958;8.284;2023-08-21T03:05:07;100896.72;;;22.16;100.00
163;BME280;3946;48.958;8.284;2023-08-21T03:07:53;100897.03;;;22.13;100.00
163;BME280;3946;48.958;8.284;2023-08-21T03:10:37;100901.16;;;22.08;100.00
163;BME280;3946;48.958;8.284;2023-08-21T03:13:24;100893.25;;;22.16;100.00
163;BME280;3946;48.958;8.284;2023-08-21T03:16:09;100894.38;;;22.05;100.00
163;BME280;3946;48.958;8.284;2023-08-21T03:18:55;100895.66;;;22.01;100.00
163;BME280;3946;48.958;8.284;2023-08-21T03:21:43;100893.72;;;22.11;100.00
163;BME280;3946;48.958;8.284;2023-08-21T03:24:29;100889.75;;;22.07;100.00
163;BME280;3946;48.958;8.284;2023-08-21T03:27:14;100893.31;;;21.98;100.00
163;BME280;3946;48.958;8.284;2023-08-21T03:29:59;100901.81;;;21.84;100.00
163;BME280;3946;48.958;8.284;2023-08-21T03:32:46;100895.59;;;21.93;100.00
163;BME280;3946;48.958;8.284;2023-08-21T03:35:31;100900.84;;;21.85;100.00
163;BME280;3946;48.958;8.284;2023-08-21T03:38:17;100899.03;;;21.85;100.00
163;BME280;3946;48.958;8.284;2023-08-21T03:41:03;100893.75;;;21.85;100.00
163;BME280;3946;48.958;8.284;2023-08-21T03:43:49;100892.13;;;21.92;100.00
163;BME280;3946;48.958;8.284;2023-08-21T03:46:34;100897.97;;;21.78;100.00
163;BME280;3946;48.958;8.284;2023-08-21T03:49:19;100906.69;;;21.71;100.00
163;BME280;3946;48.958;8.284;2023-08-21T03:52:05;100901.25;;;21.46;100.00
163;BME280;3946;48.958;8.284;2023-08-21T03:54:51;100917.13;;;21.54;100.00
163;BME280;3946;48.958;8.284;2023-08-21T03:57:36;100910.22;;;21.53;100.00
163;BME280;3946;48.958;8.284;2023-08-21T04:00:22;100916.38;;;21.44;100.00
163;BME280;3946;48.958;8.284;2023-08-21T04:03:08;100912.28;;;21.42;100.00
163;BME280;3946;48.958;8.284;2023-08-21T04:05:53;100909.91;;;21.56;100.00
163;BME280;3946;48.958;8.284;2023-08-21T04:08:38;100910.09;;;21.63;100.00
163;BME280;3946;48.958;8.284;2023-08-21T04:11:24;100908.97;;;21.65;100.00
163;BME280;3946;48.958;8.284;2023-08-21T04:14:09;100907.31;;;21.64;100.00
163;BME280;3946;48.958;8.284;2023-08-21T04:16:54;100911.75;;;21.64;100.00
163;BME280;3946;48.958;8.284;2023-08-21T04:19:39;100913.63;;;21.72;100.00
163;BME280;3946;48.958;8.284;2023-08-21T04:22:24;100907.81;;;21.68;100.00
163;BME280;3946;48.958;8.284;2023-08-21T04:25:09;100903.53;;;21.67;100.00
163;BME280;3946;48.958;8.284;2023-08-21T04:27:56;100911.44;;;21.67;100.00
163;BME280;3946;48.958;8.284;2023-08-21T04:30:41;100915.75;;;21.68;100.00
163;BME280;3946;48.958;8.284;2023-08-21T04:33:27;100920.66;;;21.63;100.00
163;BME280;3946;48.958;8.284;2023-08-21T04:36:16;100922.59;;;21.61;100.00
163;BME280;3946;48.958;8.284;2023-08-21T04:39:04;100922.25;;;21.56;100.00
163;BME280;3946;48.958;8.284;2023-08-21T04:41:49;100918.88;;;21.46;100.00
163;BME280;3946;48.958;8.284;2023-08-21T04:44:37;100929.56;;;21.44;100.00
163;BME280;3946;48.958;8.284;2023-08-21T04:47:23;100930.13;;;21.30;100.00
163;BME280;3946;48.958;8.284;2023-08-21T04:50:12;100938.34;;;21.27;100.00
163;BME280;3946;48.958;8.284;2023-08-21T04:52:59;100932.91;;;21.46;100.00
163;BME280;3946;48.958;8.284;2023-08-21T04:55:44;100932.13;;;21.54;100.00
163;BME280;3946;48.958;8.284;2023-08-21T04:58:31;100945.47;;;21.52;100.00
163;BME280;3946;48.958;8.284;2023-08-21T05:01:18;100942.69;;;21.54;100.00
163;BME280;3946;48.958;8.284;2023-08-21T05:04:06;100944.16;;;21.74;100.00
163;BME280;3946;48.958;8.284;2023-08-21T05:06:51;100944.00;;;22.02;100.00
163;BME280;3946;48.958;8.284;2023-08-21T05:09:35;100938.03;;;22.33;100.00
163;BME280;3946;48.958;8.284;2023-08-21T05:12:21;100943.44;;;22.74;100.00
163;BME280;3946;48.958;8.284;2023-08-21T05:15:06;100939.56;;;23.02;100.00
163;BME280;3946;48.958;8.284;2023-08-21T05:17:53;100933.16;;;23.54;98.52
163;BME280;3946;48.958;8.284;2023-08-21T05:20:39;100935.03;;;24.00;94.70
163;BME280;3946;48.958;8.284;2023-08-21T05:23:25;100925.91;;;24.73;91.40
163;BME280;3946;48.958;8.284;2023-08-21T05:26:15;100925.34;;;25.08;88.42
163;BME280;3946;48.958;8.284;2023-08-21T05:29:00;100930.19;;;25.05;87.87
163;BME280;3946;48.958;8.284;2023-08-21T05:31:45;100937.69;;;25.39;86.45
163;BME280;3946;48.958;8.284;2023-08-21T05:34:32;100931.28;;;25.71;84.00
163;BME280;3946;48.958;8.284;2023-08-21T05:37:17;100936.41;;;25.72;83.82
163;BME280;3946;48.958;8.284;2023-08-21T05:40:02;100935.97;;;26.13;81.29
163;BME280;3946;48.958;8.284;2023-08-21T05:42:47;100935.84;;;26.21;81.13
163;BME280;3946;48.958;8.284;2023-08-21T05:45:33;100930.53;;;26.21;81.10
163;BME280;3946;48.958;8.284;2023-08-21T05:48:18;100941.25;;;26.42;79.78
163;BME280;3946;48.958;8.284;2023-08-21T05:51:04;100949.59;;;26.39;80.52
163;BME280;3946;48.958;8.284;2023-08-21T05:53:49;100934.34;;;26.84;77.42
163;BME280;3946;48.958;8.284;2023-08-21T05:56:34;100938.66;;;26.85;77.36
163;BME280;3946;48.958;8.284;2023-08-21T05:59:26;100936.75;;;26.94;77.51
163;BME280;3946;48.958;8.284;2023-08-21T06:02:11;100935.78;;;26.65;78.51
163;BME280;3946;48.958;8.284;2023-08-21T06:04:57;100945.53;;;26.58;78.43
163;BME280;3946;48.958;8.284;2023-08-21T06:07:44;100944.09;;;26.77;78.10
163;BME280;3946;48.958;8.284;2023-08-21T06:10:30;100943.34;;;26.62;78.59
163;BME280;3946;48.958;8.284;2023-08-21T06:13:16;100948.88;;;26.31;79.34
163;BME280;3946;48.958;8.284;2023-08-21T06:16:02;100958.19;;;25.68;82.50
163;BME280;3946;48.958;8.284;2023-08-21T06:18:48;100963.78;;;25.13;85.71
163;BME280;3946;48.958;8.284;2023-08-21T06:21:33;100959.72;;;25.02;86.33
163;BME280;3946;48.958;8.284;2023-08-21T06:24:20;100953.13;;;24.90;87.06
163;BME280;3946;48.958;8.284;2023-08-21T06:27:09;100965.25;;;24.61;88.44
163;BME280;3946;48.958;8.284;2023-08-21T06:29:54;100963.50;;;24.76;88.29
163;BME280;3946;48.958;8.284;2023-08-21T06:32:39;100968.88;;;24.99;87.91
163;BME280;3946;48.958;8.284;2023-08-21T06:35:24;100970.09;;;25.12;86.81
163;BME280;3946;48.958;8.284;2023-08-21T06:38:10;100972.97;;;25.25;85.79
163;BME280;3946;48.958;8.284;2023-08-21T06:40:57;100978.19;;;25.33;85.03
163;BME280;3946;48.958;8.284;2023-08-21T06:43:42;100983.66;;;25.54;84.99
163;BME280;3946;48.958;8.284;2023-08-21T06:46:27;100978.59;;;25.67;84.63
163;BME280;3946;48.958;8.284;2023-08-21T06:49:12;100972.63;;;25.65;83.16
163;BME280;3946;48.958;8.284;2023-08-21T06:51:58;100982.31;;;25.58;84.57
163;BME280;3946;48.958;8.284;2023-08-21T06:54:43;100977.00;;;25.58;84.42
163;BME280;3946;48.958;8.284;2023-08-21T06:57:29;100979.53;;;25.74;83.52
163;BME280;3946;48.958;8.284;2023-08-21T07:00:15;100983.09;;;25.82;83.08
163;BME280;3946;48.958;8.284;2023-08-21T07:03:00;100979.91;;;25.86;82.39
163;BME280;3946;48.958;8.284;2023-08-21T07:05:46;100971.47;;;25.68;83.08
163;BME280;3946;48.958;8.284;2023-08-21T07:08:37;100978.25;;;25.70;83.53
163;BME280;3946;48.958;8.284;2023-08-21T07:11:24;100976.53;;;25.92;83.60
163;BME280;3946;48.958;8.284;2023-08-21T07:14:10;100970.69;;;26.11;81.46
163;BME280;3946;48.958;8.284;2023-08-21T07:16:57;100974.41;;;26.46;81.66
163;BME280;3946;48.958;8.284;2023-08-21T07:19:41;100982.81;;;26.65;79.89
163;BME280;3946;48.958;8.284;2023-08-21T07:22:26;100974.44;;;26.82;79.09
163;BME280;3946;48.958;8.284;2023-08-21T07:25:12;100970.72;;;26.98;77.21
163;BME280;3946;48.958;8.284;2023-08-21T07:27:58;100981.66;;;26.89;77.60
163;BME280;3946;48.958;8.284;2023-08-21T07:30:44;100977.88;;;26.98;77.21
163;BME280;3946;48.958;8.284;2023-08-21T07:33:29;100979.72;;;27.18;76.47
163;BME280;3946;48.958;8.284;2023-08-21T07:36:14;100982.66;;;27.02;76.56
163;BME280;3946;48.958;8.284;2023-08-21T07:39:01;100985.69;;;26.99;77.34
163;BME280;3946;48.958;8.284;2023-08-21T07:41:46;100983.81;;;26.78;77.64
163;BME280;3946;48.958;8.284;2023-08-21T07:44:30;100980.13;;;26.94;77.54
163;BME280;3946;48.958;8.284;2023-08-21T07:47:17;100976.41;;;27.10;76.51
163;BME280;3946;48.958;8.284;2023-08-21T07:50:02;100977.78;;;27.06;76.71
163;BME280;3946;48.958;8.284;2023-08-21T07:52:47;100975.06;;;27.21;75.63
163;BME280;3946;48.958;8.284;2023-08-21T07:55:32;100976.97;;;27.27;75.98
163;BME280;3946;48.958;8.284;2023-08-21T07:58:18;100984.34;;;27.31;76.26
163;BME280;3946;48.958;8.284;2023-08-21T08:01:03;100973.44;;;27.69;75.49
163;BME280;3946;48.958;8.284;2023-08-21T08:03:50;100974.13;;;27.84;74.98
163;BME280;3946;48.958;8.284;2023-08-21T08:06:35;100969.97;;;28.03;73.87
163;BME280;3946;48.958;8.284;2023-08-21T08:09:20;100965.38;;;27.90;73.30
163;BME280;3946;48.958;8.284;2023-08-21T08:12:05;100968.25;;;27.95;72.92
163;BME280;3946;48.958;8.284;2023-08-21T08:14:50;100971.94;;;27.94;72.52
163;BME280;3946;48.958;8.284;2023-08-21T08:17:35;100969.59;;;28.12;71.28
163;BME280;3946;48.958;8.284;2023-08-21T08:20:22;100960.94;;;28.45;71.24
163;BME280;3946;48.958;8.284;2023-08-21T08:23:07;100975.28;;;28.44;70.95
163;BME280;3946;48.958;8.284;2023-08-21T08:25:51;100961.94;;;28.85;69.40
163;BME280;3946;48.958;8.284;2023-08-21T08:28:37;100968.28;;;28.84;68.55
163;BME280;3946;48.958;8.284;2023-08-21T08:31:22;100972.53;;;28.72;69.82
163;BME280;3946;48.958;8.284;2023-08-21T08:34:09;100979.28;;;28.74;69.55
163;BME280;3946;48.958;8.284;2023-08-21T08:36:55;100964.59;;;28.85;67.70
163;BME280;3946;48.958;8.284;2023-08-21T08:39:40;100963.81;;;29.04;67.70
163;BME280;3946;48.958;8.284;2023-08-21T08:42:25;100965.56;;;28.77;67.93
163;BME280;3946;48.958;8.284;2023-08-21T08:45:12;100971.41;;;29.01;69.05
163;BME280;3946;48.958;8.284;2023-08-21T08:47:58;100969.13;;;28.98;68.09
163;BME280;3946;48.958;8.284;2023-08-21T08:50:44;100959.72;;;29.21;67.02
163;BME280;3946;48.958;8.284;2023-08-21T08:53:31;100971.00;;;29.17;67.96
163;BME280;3946;48.958;8.284;2023-08-21T08:56:16;100957.69;;;29.43;66.50
163;BME280;3946;48.958;8.284;2023-08-21T08:59:01;100965.69;;;29.50;67.91
163;BME280;3946;48.958;8.284;2023-08-21T09:01:46;100963.19;;;29.81;67.74
163;BME280;3946;48.958;8.284;2023-08-21T09:04:31;100958.66;;;29.82;66.07
163;BME280;3946;48.958;8.284;2023-08-21T09:07:17;100962.13;;;29.89;66.64
163;BME280;3946;48.958;8.284;2023-08-21T09:10:03;100963.97;;;29.88;66.83
163;BME280;3946;48.958;8.284;2023-08-21T09:12:49;100950.44;;;29.83;66.48
163;BME280;3946;48.958;8.284;2023-08-21T09:15:35;100951.47;;;29.82;67.27
163;BME280;3946;48.958;8.284;2023-08-21T09:18:20;100948.81;;;29.82;65.77
163;BME280;3946;48.958;8.284;2023-08-21T09:21:05;100953.28;;;29.95;66.87
163;BME280;3946;48.958;8.284;2023-08-21T09:23:55;100963.56;;;30.11;68.21
163;BME280;3946;48.958;8.284;2023-08-21T09:26:42;100957.00;;;29.87;67.66
163;BME280;3946;48.958;8.284;2023-08-21T09:29:28;100953.13;;;29.77;68.98
163;BME280;3946;48.958;8.284;2023-08-21T09:32:22;100949.13;;;30.19;67.56
163;BME280;3946;48.958;8.284;2023-08-21T09:35:07;100941.13;;;30.12;66.34
163;BME280;3946;48.958;8.284;2023-08-21T09:37:58;100945.72;;;30.43;66.22
163;BME280;3946;48.958;8.284;2023-08-21T09:40:44;100948.06;;;30.71;66.63
163;BME280;3946;48.958;8.284;2023-08-21T09:43:40;100929.63;;;30.56;63.72
163;BME280;3946;48.958;8.284;2023-08-21T09:46:26;100931.66;;;30.68;63.97
163;BME280;3946;48.958;8.284;2023-08-21T09:49:11;100940.13;;;30.58;65.79
163;BME280;3946;48.958;8.284;2023-08-21T09:51:57;100925.69;;;30.66;63.44
163;BME280;3946;48.958;8.284;2023-08-21T09:54:42;100917.28;;;30.87;61.85
163;BME280;3946;48.958;8.284;2023-08-21T09:57:27;100910.03;;;30.94;61.47
163;BME280;3946;48.958;8.284;2023-08-21T10:00:14;100903.75;;;31.13;61.44
163;BME280;3946;48.958;8.284;2023-08-21T10:03:04;100927.09;;;31.00;63.82
163;BME280;3946;48.958;8.284;2023-08-21T10:05:49;100907.47;;;31.06;63.45
163;BME280;3946;48.958;8.284;2023-08-21T10:08:36;100892.19;;;31.56;61.95
163;BME280;3946;48.958;8.284;2023-08-21T10:11:21;100880.06;;;31.53;58.40
163;BME280;3946;48.958;8.284;2023-08-21T10:14:07;100888.72;;;31.12;59.43
163;BME280;3946;48.958;8.284;2023-08-21T10:16:53;100888.75;;;31.30;59.44
163;BME280;3946;48.958;8.284;2023-08-21T10:19:39;100883.84;;;31.27;58.87
163;BME280;3946;48.958;8.284;2023-08-21T10:25:27;100880.81;;;31.60;59.31
163;BME280;3946;48.958;8.284;2023-08-21T10:28:12;100854.72;;;31.74;56.87
163;BME280;3946;48.958;8.284;2023-08-21T10:31:01;100872.44;;;31.75;57.15
163;BME280;3946;48.958;8.284;2023-08-21T10:34:07;100875.19;;;31.69;57.65
163;BME280;3946;48.958;8.284;2023-08-21T10:37:02;100866.53;;;31.85;58.23
163;BME280;3946;48.958;8.284;2023-08-21T10:39:54;100876.72;;;32.13;58.30
163;BME280;3946;48.958;8.284;2023-08-21T10:42:40;100856.41;;;32.35;55.89
163;BME280;3946;48.958;8.284;2023-08-21T10:45:26;100854.25;;;32.44;54.78
163;BME280;3946;48.958;8.284;2023-08-21T10:48:11;100861.25;;;32.56;54.72
163;BME280;3946;48.958;8.284;2023-08-21T10:50:57;100857.31;;;32.71;55.94
163;BME280;3946;48.958;8.284;2023-08-21T10:53:43;100848.44;;;32.58;55.14
163;BME280;3946;48.958;8.284;2023-08-21T10:56:27;100856.22;;;32.78;55.06
163;BME280;3946;48.958;8.284;2023-08-21T10:59:16;100842.72;;;32.55;54.58
163;BME280;3946;48.958;8.284;2023-08-21T11:02:01;100848.28;;;32.95;54.76
163;BME280;3946;48.958;8.284;2023-08-21T11:04:47;100847.81;;;32.98;55.21
163;BME280;3946;48.958;8.284;2023-08-21T11:07:37;100838.59;;;32.94;54.11
163;BME280;3946;48.958;8.284;2023-08-21T11:10:23;100845.59;;;32.95;54.58
163;BME280;3946;48.958;8.284;2023-08-21T11:13:08;100854.25;;;33.20;56.11
163;BME280;3946;48.958;8.284;2023-08-21T11:15:57;100837.66;;;33.35;54.67
163;BME280;3946;48.958;8.284;2023-08-21T11:18:42;100825.25;;;33.46;53.59
163;BME280;3946;48.958;8.284;2023-08-21T11:21:28;100839.75;;;33.56;54.56
163;BME280;3946;48.958;8.284;2023-08-21T11:24:14;100836.34;;;33.49;54.17
163;BME280;3946;48.958;8.284;2023-08-21T11:26:59;100834.63;;;33.20;53.94
163;BME280;3946;48.958;8.284;2023-08-21T11:29:44;100840.66;;;33.62;55.55
163;BME280;3946;48.958;8.284;2023-08-21T11:32:30;100826.31;;;33.56;53.57
163;BME280;3946;48.958;8.284;2023-08-21T11:35:14;100840.31;;;33.47;55.00
163;BME280;3946;48.958;8.284;2023-08-21T11:37:59;100825.56;;;33.61;52.81
163;BME280;3946;48.958;8.284;2023-08-21T11:40:52;100812.50;;;33.53;52.42
163;BME280;3946;48.958;8.284;2023-08-21T11:43:37;100827.66;;;33.82;54.35
163;BME280;3946;48.958;8.284;2023-08-21T11:46:23;100835.00;;;33.87;53.37
163;BME280;3946;48.958;8.284;2023-08-21T11:49:08;100807.94;;;33.77;51.34
163;BME280;3946;48.958;8.284;2023-08-21T11:51:53;100824.56;;;33.15;53.22
163;BME280;3946;48.958;8.284;2023-08-21T11:54:38;100821.75;;;33.45;52.99
163;BME280;3946;48.958;8.284;2023-08-21T11:57:25;100814.50;;;33.46;51.89
163;BME280;3946;48.958;8.284;2023-08-21T12:00:12;100808.88;;;33.59;51.16
163;BME280;3946;48.958;8.284;2023-08-21T12:02:59;100811.97;;;33.91;50.95
163;BME280;3946;48.958;8.284;2023-08-21T12:05:44;100805.84;;;33.55;51.10
163;BME280;3946;48.958;8.284;2023-08-21T12:08:29;100806.06;;;33.94;51.01
163;BME280;3946;48.958;8.284;2023-08-21T12:11:14;100812.97;;;34.01;50.92
163;BME280;3946;48.958;8.284;2023-08-21T12:14:01;100809.09;;;33.97;51.19
163;BME280;3946;48.958;8.284;2023-08-21T12:16:46;100804.31;;;33.99;51.07
163;BME280;3946;48.958;8.284;2023-08-21T12:19:31;100786.81;;;34.14;49.00
163;BME280;3946;48.958;8.284;2023-08-21T12:22:16;100788.78;;;34.18;49.45
163;BME280;3946;48.958;8.284;2023-08-21T12:25:00;100793.06;;;34.02;49.88
163;BME280;3946;48.958;8.284;2023-08-21T12:27:47;100802.59;;;34.10;50.60
163;BME280;3946;48.958;8.284;2023-08-21T12:30:33;100783.38;;;34.01;49.81
163;BME280;3946;48.958;8.284;2023-08-21T12:33:19;100787.19;;;34.34;50.23
163;BME280;3946;48.958;8.284;2023-08-21T12:36:04;100771.72;;;34.41;49.02
163;BME280;3946;48.958;8.284;2023-08-21T12:38:49;100768.28;;;34.46;49.14
163;BME280;3946;48.958;8.284;2023-08-21T12:41:34;100763.34;;;34.26;48.30
163;BME280;3946;48.958;8.284;2023-08-21T12:44:18;100768.97;;;34.08;49.02
163;BME280;3946;48.958;8.284;2023-08-21T12:47:05;100755.88;;;34.28;49.17
163;BME280;3946;48.958;8.284;2023-08-21T12:49:50;100746.69;;;34.41;48.19
163;BME280;3946;48.958;8.284;2023-08-21T12:52:35;100781.66;;;34.41;51.10
163;BME280;3946;48.958;8.284;2023-08-21T12:55:20;100750.47;;;34.28;48.00
163;BME280;3946;48.958;8.284;2023-08-21T12:58:04;100767.47;;;34.00;49.87
163;BME280;3946;48.958;8.284;2023-08-21T13:00:49;100768.59;;;34.32;50.46
163;BME280;3946;48.958;8.284;2023-08-21T13:03:36;100757.03;;;34.32;49.21
163;BME280;3946;48.958;8.284;2023-08-21T13:06:21;100752.91;;;34.63;48.83
163;BME280;3946;48.958;8.284;2023-08-21T13:09:06;100763.38;;;34.59;50.27
163;BME280;3946;48.958;8.284;2023-08-21T13:11:53;100763.34;;;34.26;50.20
163;BME280;3946;48.958;8.284;2023-08-21T13:14:38;100762.50;;;34.37;50.59
163;BME280;3946;48.958;8.284;2023-08-21T13:17:25;100757.03;;;34.32;49.86
163;BME280;3946;48.958;8.284;2023-08-21T13:20:11;100759.03;;;34.25;50.37
163;BME280;3946;48.958;8.284;2023-08-21T13:22:56;100746.00;;;34.50;50.26
163;BME280;3946;48.958;8.284;2023-08-21T13:25:41;100754.41;;;34.70;50.18
163;BME280;3946;48.958;8.284;2023-08-21T13:28:26;100752.44;;;34.66;50.14
163;BME280;3946;48.958;8.284;2023-08-21T13:31:11;100730.72;;;34.72;47.35
163;BME280;3946;48.958;8.284;2023-08-21T13:33:56;100743.63;;;34.87;49.15
163;BME280;3946;48.958;8.284;2023-08-21T13:36:43;100729.84;;;34.67;46.88
163;BME280;3946;48.958;8.284;2023-08-21T13:39:28;100745.09;;;34.61;49.57
163;BME280;3946;48.958;8.284;2023-08-21T13:42:14;100738.06;;;34.77;49.02
163;BME280;3946;48.958;8.284;2023-08-21T13:44:59;100711.13;;;35.16;46.40
163;BME280;3946;48.958;8.284;2023-08-21T13:47:45;100711.31;;;34.70;46.86
163;BME280;3946;48.958;8.284;2023-08-21T13:50:31;100711.66;;;35.34;46.25
163;BME280;3946;48.958;8.284;2023-08-21T13:53:17;100704.59;;;35.55;45.68
163;BME280;3946;48.958;8.284;2023-08-21T13:56:02;100700.78;;;35.51;45.29
163;BME280;3946;48.958;8.284;2023-08-21T13:58:48;100699.97;;;35.51;45.90
163;BME280;3946;48.958;8.284;2023-08-21T14:01:33;100699.22;;;35.33;45.93
163;BME280;3946;48.958;8.284;2023-08-21T14:04:18;100694.44;;;35.40;45.47
163;BME280;3946;48.958;8.284;2023-08-21T14:07:03;100694.09;;;35.32;45.36
163;BME280;3946;48.958;8.284;2023-08-21T14:09:50;100683.19;;;35.00;45.78
163;BME280;3946;48.958;8.284;2023-08-21T14:12:34;100688.88;;;35.03;47.17
163;BME280;3946;48.958;8.284;2023-08-21T14:15:20;100700.47;;;35.04;47.75
163;BME280;3946;48.958;8.284;2023-08-21T14:18:05;100681.38;;;35.05;46.29
163;BME280;3946;48.958;8.284;2023-08-21T14:20:50;100690.81;;;34.86;47.89
163;BME280;3946;48.958;8.284;2023-08-21T14:23:35;100718.41;;;35.37;50.69
163;BME280;3946;48.958;8.284;2023-08-21T14:26:23;100688.28;;;35.45;47.93
163;BME280;3946;48.958;8.284;2023-08-21T14:29:08;100698.41;;;35.60;49.19
163;BME280;3946;48.958;8.284;2023-08-21T14:31:53;100683.88;;;35.61;47.57
163;BME280;3946;48.958;8.284;2023-08-21T14:34:38;100686.31;;;35.35;47.22
163;BME280;3946;48.958;8.284;2023-08-21T14:37:23;100687.88;;;35.31;48.36
163;BME280;3946;48.958;8.284;2023-08-21T14:40:08;100702.69;;;35.29;49.39
163;BME280;3946;48.958;8.284;2023-08-21T14:42:54;100689.69;;;35.48;48.09
163;BME280;3946;48.958;8.284;2023-08-21T14:45:39;100681.53;;;35.21;47.55
163;BME280;3946;48.958;8.284;2023-08-21T14:48:24;100674.09;;;35.28;46.40
163;BME280;3946;48.958;8.284;2023-08-21T14:51:09;100672.66;;;35.20;46.28
163;BME280;3946;48.958;8.284;2023-08-21T14:53:54;100667.63;;;35.07;45.82
163;BME280;3946;48.958;8.284;2023-08-21T14:56:40;100668.56;;;35.18;46.90
163;BME280;3946;48.958;8.284;2023-08-21T14:59:26;100674.78;;;35.18;47.27